KHYAKMVY

Guest
Details From KHYA - Barnstable Muni Boardman Polando Fld
To KMVY - Marthas Vineyard
Flight Number -
Tags Generated
Created
Modified
Stats Distance 22 nm / 42 km
Max Altitude 0 ft / 0 m
Waypoints 2
Social Downloads 0
Likes 0
Share VATSIM

Download

Looking for another format? Having issues loading an existing format? Contact us
Advertisement - Login to hide

Notes

Generated

Route

KHYA KMVY

ID Type Via Altitude Latitude Longitude Leg Dist Tot Dist Heading (true) Name
O KHYA APT - 0 ft / 0 m 41.66460˚ -70.28278˚ - 0 nm - -
O KMVY APT - 0 ft / 0 m 41.38763˚ -70.61791˚ 22 nm 22 nm 222° / 222° Marthas Vineyard

Altitude Profile

Advertisement - Login to hide

KHYA

Details ICAO KHYA (HYA)
Name Barnstable Muni Boardman Polando Fld
Region United States
Timezone America/New_York (UTC-5.0)
Stats Elevation 55 ft / 17 m (AMSL)
Location 41.669346° -70.280438°
Runways 2
Magnetic Variation 14.781° W

METAR

KHYA 140956Z AUTO 29003KT 5SM -SN OVC041 M04/M10 A2960 RMK AO2 SNB36 SLP025 P0000 T10441100

Decode

TAF

TAF KHYA 140535Z 1406/1506 26013G20KT P6SM BKN100 FM141200 31004KT 1SM -SN OVC020 FM141400 34010KT 1SM -SN OVC015 FM141600 34010KT P6SM OVC035 FM142000 31011G20KT P6SM SCT080

Decode

Departure Runways

ID Width Length Bearing (true) Bearing (mag) Surface Threshold Offset Overrun Length
06 151 ft / 46 m 5,430 ft / 1,655 m 49.70° 64.48° Asphalt 407 ft / 124 m 289 ft / 88 m
15 151 ft / 46 m 5,257 ft / 1,602 m 139.88° 154.66° Asphalt 0 ft / 0 m 0 ft / 0 m
24 151 ft / 46 m 5,430 ft / 1,655 m 229.71° 244.49° Asphalt 0 ft / 0 m 0 ft / 0 m
33 151 ft / 46 m 5,257 ft / 1,602 m 319.88° 334.66° Asphalt 151 ft / 46 m 0 ft / 0 m

KMVY

Details ICAO KMVY (MVY)
Name Marthas Vineyard
Region United States
Timezone America/New_York (UTC-5.0)
Stats Elevation 68 ft / 21 m (AMSL)
Location 41.392961° -70.615852°
Runways 3
Magnetic Variation 14.583° W

METAR

KMVY 140953Z AUTO 32004KT 7SM -SN BKN060 OVC075 M17/M17 A2961 RMK AO2 SLP027 P0000 T11671167 $

Decode

TAF

Not found

Destination Runways

ID Width Length Bearing (true) Bearing (mag) Surface Threshold Offset Overrun Length
01 75 ft / 23 m 3,182 ft / 970 m 355.64° 10.22° Asphalt 100 ft / 30 m 0 ft / 0 m
06 100 ft / 30 m 5,503 ft / 1,677 m 40.50° 55.08° Asphalt 300 ft / 91 m 0 ft / 0 m
15 75 ft / 23 m 3,294 ft / 1,004 m 130.72° 145.30° Asphalt 250 ft / 76 m 0 ft / 0 m
19 75 ft / 23 m 3,182 ft / 970 m 175.64° 190.22° Asphalt 100 ft / 30 m 0 ft / 0 m
24 100 ft / 30 m 5,503 ft / 1,677 m 220.51° 235.09° Asphalt 300 ft / 91 m 0 ft / 0 m
33 75 ft / 23 m 3,294 ft / 1,004 m 310.73° 325.31° Asphalt 250 ft / 76 m 0 ft / 0 m

Approach Navaids

Runway Type Ident Frequency Range Bearing (true) Bearing (mag) Slope Elevation
24 Localiser IMVY 108.70 MHz 18 nm / 33 km 220.48° 235.07° - 68 ft / 21 m (AMSL)
24 Glidescope IMVY 108.70 MHz 10 nm / 19 km 220.50° 235.09° 3.00° 61 ft / 19 m (AMSL)
24 DME IMVY 108.70 MHz 18 nm / 33 km - - - 68 ft / 21 m (AMSL)

Popular Alternatives